Tivjaku, Russia
Current Conditions -  °F | °C
As of 10:30 AM on Thursday 18 Dec 2014 (Local Time) from UHHH Reporting Station
Light Snow Light Snow  
Wind Chill: -19°   Ceiling: 10000
Heat Index:   Visibility: 6mi
Dew Point: -4°   Wind: 13mph
Humidity: 85%   Direction: 240°WSW
Pressure: 30.24"   Gusts: NA
Location:  48.6°N, 137.05°E
Report Text: UHHH 180030Z 24006MPS 9999 -SN OVC100 M18/M20 Q1024 NOSIG RMKQFE761/1015 23490540
Loading
Personal Weather Stations






























Interactive Weather Map New forecast layout! Learn more

10-Day Weather Forecast

Advertisements
Track Severe Weather on mobile